Amalga, UT

8:00 AM MST on December 27, 2014 (GMT -0700)
Northwest Smithfield | Change Station
CLOSE
Current Station
Personal Weather Station
Location: Smithfield, UT
Elevation: 4590 ft
Nearby Weather Stations
Active Advisory: Winter Storm Watch Active Notice: Local Storm Report

Elev 4590 ft 41.84 °N, 111.84 °W | Updated 13 minutes ago

Partly Cloudy
Partly Cloudy
4.6 °F
Feels Like 5 °F
N
1.7
Wind Variable Wind from East

Today
High -- | Low -- °F
--% Chance of Precip.
Yesterday
High -- | Low -- °F
Precip. -- in
7:54 AM 5:03 PM
Waxing Crescent, 37% visible
Pressure 30.57 in
Visibility 1.8 miles
Clouds Few 200 ft
Windchill 5 °F
Dew Point 3 °F
Humidity 94%
Rainfall 0.00 in
Snow Depth Not available.
UV 0 out of 12
Pollen .10 out of 12
Air Quality Not available.
Flu Activity Not available.
METAR KLGU 271451Z AUTO 06004KT 1 3/4SM BR FEW002 M18/M21 A3034 RMK AO2 SLP351 I1000 I3000 T11831206 51008

More Conditions Fewer Conditions

Pressure 30.57 in
Visibility 1.8 miles
Clouds Few 200 ft
Windchill 5 °F
Dew Point 3 °F
Humidity 94%
Rainfall 0.00 in
Snow Depth Not available.
UV 0 out of 12
Pollen .10 out of 12
Air Quality Not available.
Flu Activity Not available.
METAR KLGU 271451Z AUTO 06004KT 1 3/4SM BR FEW002 M18/M21 A3034 RMK AO2 SLP351 I1000 I3000 T11831206 51008

More Conditions Fewer Conditions

10-Day Weather Forecast

Almanac

Astronomy

Dec. 27, 2014 Rise Set
Actual Time
Civil Twilight
Nautical Twilight
Astronomical Twilight
Moon
Length of Visible Light
Length of Day
Tomorrow will be .
, % of the Moon is Illuminated

Today's Extremes

State Highs State Lows

Community

WunderPhotos

Upload Photos

1,780,923 photos uploaded!

WunderBlogs® & News

Nearby

Air Quality

  Air Quality AQ Index Pollutant
Not available.

Snow Depth

Station Depth Elevation

Earthquake Activity

City Distance Mag. Time & Date
Minimum magnitude displayed is 2.5.

Coastal Water Temperatures

Place Temperature

Nearby Weather Stations